sensor_id;sensor_type;location;lat;lon;timestamp;P1;durP1;ratioP1;P2;durP2;ratioP2
42296;SDS011;28985;47.456;19.016;2022-07-31T00:00:12;3.72;;;3.47;;
42296;SDS011;28985;47.456;19.016;2022-07-31T00:02:40;4.10;;;3.70;;
42296;SDS011;28985;47.456;19.016;2022-07-31T00:05:07;4.30;;;3.90;;
42296;SDS011;28985;47.456;19.016;2022-07-31T00:07:34;4.47;;;4.13;;
42296;SDS011;28985;47.456;19.016;2022-07-31T00:10:00;4.53;;;4.13;;
42296;SDS011;28985;47.456;19.016;2022-07-31T00:12:27;5.18;;;3.90;;
42296;SDS011;28985;47.456;19.016;2022-07-31T00:14:54;4.80;;;3.97;;
42296;SDS011;28985;47.456;19.016;2022-07-31T00:17:20;6.80;;;4.72;;
42296;SDS011;28985;47.456;19.016;2022-07-31T00:19:47;4.60;;;4.20;;
42296;SDS011;28985;47.456;19.016;2022-07-31T00:22:14;5.85;;;4.18;;
42296;SDS011;28985;47.456;19.016;2022-07-31T00:24:40;5.53;;;4.18;;
42296;SDS011;28985;47.456;19.016;2022-07-31T00:27:07;5.05;;;4.65;;
42296;SDS011;28985;47.456;19.016;2022-07-31T00:29:36;4.40;;;4.00;;
42296;SDS011;28985;47.456;19.016;2022-07-31T00:32:03;4.85;;;4.32;;
42296;SDS011;28985;47.456;19.016;2022-07-31T00:34:30;4.40;;;4.10;;
42296;SDS011;28985;47.456;19.016;2022-07-31T00:36:57;4.20;;;3.90;;
42296;SDS011;28985;47.456;19.016;2022-07-31T00:39:23;5.22;;;4.72;;
42296;SDS011;28985;47.456;19.016;2022-07-31T00:41:50;4.70;;;4.32;;
42296;SDS011;28985;47.456;19.016;2022-07-31T00:44:16;4.43;;;4.05;;
42296;SDS011;28985;47.456;19.016;2022-07-31T00:46:43;5.70;;;3.67;;
42296;SDS011;28985;47.456;19.016;2022-07-31T00:49:10;5.50;;;5.00;;
42296;SDS011;28985;47.456;19.016;2022-07-31T00:51:37;5.05;;;4.65;;
42296;SDS011;28985;47.456;19.016;2022-07-31T00:54:05;4.25;;;3.92;;
42296;SDS011;28985;47.456;19.016;2022-07-31T00:56:33;5.18;;;4.55;;
42296;SDS011;28985;47.456;19.016;2022-07-31T00:59:00;5.20;;;4.15;;
42296;SDS011;28985;47.456;19.016;2022-07-31T01:01:28;4.97;;;4.07;;
42296;SDS011;28985;47.456;19.016;2022-07-31T01:03:56;5.90;;;4.78;;
42296;SDS011;28985;47.456;19.016;2022-07-31T01:06:23;4.93;;;4.55;;
42296;SDS011;28985;47.456;19.016;2022-07-31T01:08:49;5.75;;;4.60;;
42296;SDS011;28985;47.456;19.016;2022-07-31T01:13:49;5.05;;;4.43;;
42296;SDS011;28985;47.456;19.016;2022-07-31T01:16:17;5.50;;;4.13;;
42296;SDS011;28985;47.456;19.016;2022-07-31T01:18:45;4.95;;;4.50;;
42296;SDS011;28985;47.456;19.016;2022-07-31T01:21:15;4.72;;;4.32;;
42296;SDS011;28985;47.456;19.016;2022-07-31T01:34:15;5.82;;;4.25;;
42296;SDS011;28985;47.456;19.016;2022-07-31T01:36:54;4.35;;;4.05;;
42296;SDS011;28985;47.456;19.016;2022-07-31T01:39:25;4.47;;;4.18;;
42296;SDS011;28985;47.456;19.016;2022-07-31T01:41:59;3.72;;;3.45;;
42296;SDS011;28985;47.456;19.016;2022-07-31T01:44:29;6.30;;;3.47;;
42296;SDS011;28985;47.456;19.016;2022-07-31T01:47:01;3.17;;;2.97;;
42296;SDS011;28985;47.456;19.016;2022-07-31T01:49:29;8.73;;;2.90;;
42296;SDS011;28985;47.456;19.016;2022-07-31T01:51:58;3.17;;;2.97;;
42296;SDS011;28985;47.456;19.016;2022-07-31T01:54:30;2.83;;;2.60;;
42296;SDS011;28985;47.456;19.016;2022-07-31T01:56:59;3.10;;;2.80;;
42296;SDS011;28985;47.456;19.016;2022-07-31T01:59:28;3.20;;;2.90;;
42296;SDS011;28985;47.456;19.016;2022-07-31T02:01:59;2.75;;;2.55;;
42296;SDS011;28985;47.456;19.016;2022-07-31T02:04:30;3.40;;;2.70;;
42296;SDS011;28985;47.456;19.016;2022-07-31T02:06:59;2.97;;;2.67;;
42296;SDS011;28985;47.456;19.016;2022-07-31T02:09:29;2.42;;;2.22;;
42296;SDS011;28985;47.456;19.016;2022-07-31T02:11:58;2.25;;;2.15;;
42296;SDS011;28985;47.456;19.016;2022-07-31T02:14:26;2.40;;;2.20;;
42296;SDS011;28985;47.456;19.016;2022-07-31T02:16:54;2.20;;;2.08;;
42296;SDS011;28985;47.456;19.016;2022-07-31T02:19:21;2.58;;;2.38;;
42296;SDS011;28985;47.456;19.016;2022-07-31T02:21:49;3.33;;;2.10;;
42296;SDS011;28985;47.456;19.016;2022-07-31T02:24:16;2.70;;;2.50;;
42296;SDS011;28985;47.456;19.016;2022-07-31T02:26:43;2.25;;;2.05;;
42296;SDS011;28985;47.456;19.016;2022-07-31T02:29:12;2.40;;;2.30;;
42296;SDS011;28985;47.456;19.016;2022-07-31T02:31:46;2.28;;;2.13;;
42296;SDS011;28985;47.456;19.016;2022-07-31T02:34:34;2.65;;;2.40;;
42296;SDS011;28985;47.456;19.016;2022-07-31T02:37:01;2.50;;;2.30;;
42296;SDS011;28985;47.456;19.016;2022-07-31T02:39:29;2.00;;;1.90;;
42296;SDS011;28985;47.456;19.016;2022-07-31T02:41:59;2.30;;;2.20;;
42296;SDS011;28985;47.456;19.016;2022-07-31T02:44:27;1.92;;;1.83;;
42296;SDS011;28985;47.456;19.016;2022-07-31T02:46:57;1.38;;;1.33;;
42296;SDS011;28985;47.456;19.016;2022-07-31T02:49:27;1.80;;;1.70;;
42296;SDS011;28985;47.456;19.016;2022-07-31T02:51:55;1.92;;;1.83;;
42296;SDS011;28985;47.456;19.016;2022-07-31T02:54:23;1.92;;;1.70;;
42296;SDS011;28985;47.456;19.016;2022-07-31T02:56:51;2.00;;;1.90;;
42296;SDS011;28985;47.456;19.016;2022-07-31T02:59:19;3.42;;;2.40;;
42296;SDS011;28985;47.456;19.016;2022-07-31T03:01:47;2.30;;;2.20;;
42296;SDS011;28985;47.456;19.016;2022-07-31T03:04:14;2.92;;;2.30;;
42296;SDS011;28985;47.456;19.016;2022-07-31T03:06:40;2.38;;;2.25;;
42296;SDS011;28985;47.456;19.016;2022-07-31T03:09:07;2.22;;;1.92;;
42296;SDS011;28985;47.456;19.016;2022-07-31T03:11:33;2.15;;;2.05;;
42296;SDS011;28985;47.456;19.016;2022-07-31T03:14:01;2.58;;;2.38;;
42296;SDS011;28985;47.456;19.016;2022-07-31T03:16:29;2.30;;;2.20;;
42296;SDS011;28985;47.456;19.016;2022-07-31T03:18:57;2.80;;;2.28;;
42296;SDS011;28985;47.456;19.016;2022-07-31T03:21:23;2.20;;;2.10;;
42296;SDS011;28985;47.456;19.016;2022-07-31T03:23:50;2.13;;;1.98;;
42296;SDS011;28985;47.456;19.016;2022-07-31T03:26:17;2.38;;;2.28;;
42296;SDS011;28985;47.456;19.016;2022-07-31T03:28:44;3.08;;;2.85;;
42296;SDS011;28985;47.456;19.016;2022-07-31T03:31:11;2.10;;;1.90;;
42296;SDS011;28985;47.456;19.016;2022-07-31T03:33:38;2.30;;;2.10;;
42296;SDS011;28985;47.456;19.016;2022-07-31T03:36:04;2.42;;;2.22;;
42296;SDS011;28985;47.456;19.016;2022-07-31T03:38:31;3.80;;;2.20;;
42296;SDS011;28985;47.456;19.016;2022-07-31T03:41:07;2.63;;;2.42;;
42296;SDS011;28985;47.456;19.016;2022-07-31T03:43:34;2.83;;;2.63;;
42296;SDS011;28985;47.456;19.016;2022-07-31T03:46:13;2.70;;;2.50;;
42296;SDS011;28985;47.456;19.016;2022-07-31T03:48:41;3.58;;;2.00;;
42296;SDS011;28985;47.456;19.016;2022-07-31T03:51:07;2.80;;;2.58;;
42296;SDS011;28985;47.456;19.016;2022-07-31T03:53:34;2.35;;;2.25;;
42296;SDS011;28985;47.456;19.016;2022-07-31T03:56:01;3.17;;;2.13;;
42296;SDS011;28985;47.456;19.016;2022-07-31T03:58:31;2.95;;;2.75;;
42296;SDS011;28985;47.456;19.016;2022-07-31T04:00:58;3.33;;;2.60;;
42296;SDS011;28985;47.456;19.016;2022-07-31T04:03:31;3.45;;;2.97;;
42296;SDS011;28985;47.456;19.016;2022-07-31T04:05:57;3.38;;;3.08;;
42296;SDS011;28985;47.456;19.016;2022-07-31T04:08:24;2.67;;;2.50;;
42296;SDS011;28985;47.456;19.016;2022-07-31T04:10:51;3.13;;;2.92;;
42296;SDS011;28985;47.456;19.016;2022-07-31T04:13:17;3.08;;;2.88;;
42296;SDS011;28985;47.456;19.016;2022-07-31T04:15:44;3.50;;;3.20;;
42296;SDS011;28985;47.456;19.016;2022-07-31T04:18:10;3.83;;;3.15;;
42296;SDS011;28985;47.456;19.016;2022-07-31T04:20:37;3.28;;;3.08;;
42296;SDS011;28985;47.456;19.016;2022-07-31T04:23:03;3.22;;;2.90;;
42296;SDS011;28985;47.456;19.016;2022-07-31T04:25:32;4.47;;;4.07;;
42296;SDS011;28985;47.456;19.016;2022-07-31T04:27:59;3.80;;;3.33;;
42296;SDS011;28985;47.456;19.016;2022-07-31T04:30:26;5.43;;;3.30;;
42296;SDS011;28985;47.456;19.016;2022-07-31T04:32:53;4.57;;;3.30;;
42296;SDS011;28985;47.456;19.016;2022-07-31T04:35:19;3.60;;;2.97;;
42296;SDS011;28985;47.456;19.016;2022-07-31T04:37:47;4.25;;;3.00;;
42296;SDS011;28985;47.456;19.016;2022-07-31T04:40:14;3.20;;;3.00;;
42296;SDS011;28985;47.456;19.016;2022-07-31T04:42:41;3.47;;;3.28;;
42296;SDS011;28985;47.456;19.016;2022-07-31T04:45:07;4.78;;;3.38;;
42296;SDS011;28985;47.456;19.016;2022-07-31T04:47:34;2.65;;;2.45;;
42296;SDS011;28985;47.456;19.016;2022-07-31T04:50:02;3.72;;;2.35;;
42296;SDS011;28985;47.456;19.016;2022-07-31T04:52:29;1.95;;;1.85;;
42296;SDS011;28985;47.456;19.016;2022-07-31T04:54:56;6.63;;;2.90;;
42296;SDS011;28985;47.456;19.016;2022-07-31T04:57:23;2.60;;;2.40;;
42296;SDS011;28985;47.456;19.016;2022-07-31T04:59:49;2.55;;;2.35;;
42296;SDS011;28985;47.456;19.016;2022-07-31T05:02:26;2.83;;;2.38;;
42296;SDS011;28985;47.456;19.016;2022-07-31T05:04:53;3.30;;;2.58;;
42296;SDS011;28985;47.456;19.016;2022-07-31T05:07:22;2.42;;;2.33;;
42296;SDS011;28985;47.456;19.016;2022-07-31T05:09:54;2.67;;;2.47;;
42296;SDS011;28985;47.456;19.016;2022-07-31T05:12:21;2.45;;;2.25;;
42296;SDS011;28985;47.456;19.016;2022-07-31T05:14:47;2.13;;;2.03;;
42296;SDS011;28985;47.456;19.016;2022-07-31T05:17:14;3.22;;;1.92;;
42296;SDS011;28985;47.456;19.016;2022-07-31T05:19:40;3.92;;;2.35;;
42296;SDS011;28985;47.456;19.016;2022-07-31T05:22:07;2.75;;;2.25;;
42296;SDS011;28985;47.456;19.016;2022-07-31T05:24:34;3.45;;;2.00;;
42296;SDS011;28985;47.456;19.016;2022-07-31T05:27:01;2.90;;;2.70;;
42296;SDS011;28985;47.456;19.016;2022-07-31T05:29:28;2.50;;;2.30;;
42296;SDS011;28985;47.456;19.016;2022-07-31T05:31:55;4.25;;;3.85;;
42296;SDS011;28985;47.456;19.016;2022-07-31T05:34:34;2.47;;;2.13;;
42296;SDS011;28985;47.456;19.016;2022-07-31T05:37:02;2.47;;;2.35;;
42296;SDS011;28985;47.456;19.016;2022-07-31T05:39:28;3.20;;;2.75;;
42296;SDS011;28985;47.456;19.016;2022-07-31T05:41:55;2.30;;;2.20;;
42296;SDS011;28985;47.456;19.016;2022-07-31T05:44:22;2.97;;;2.53;;
42296;SDS011;28985;47.456;19.016;2022-07-31T05:46:49;2.38;;;2.17;;
42296;SDS011;28985;47.456;19.016;2022-07-31T05:49:15;2.72;;;2.53;;
42296;SDS011;28985;47.456;19.016;2022-07-31T05:51:43;2.35;;;2.15;;
42296;SDS011;28985;47.456;19.016;2022-07-31T05:54:10;3.63;;;2.50;;
42296;SDS011;28985;47.456;19.016;2022-07-31T05:56:36;4.10;;;2.33;;
42296;SDS011;28985;47.456;19.016;2022-07-31T05:59:03;2.10;;;1.90;;
42296;SDS011;28985;47.456;19.016;2022-07-31T06:01:30;2.88;;;2.58;;
42296;SDS011;28985;47.456;19.016;2022-07-31T06:03:57;4.10;;;2.85;;
42296;SDS011;28985;47.456;19.016;2022-07-31T06:06:23;3.65;;;2.47;;
42296;SDS011;28985;47.456;19.016;2022-07-31T06:08:50;5.18;;;2.22;;
42296;SDS011;28985;47.456;19.016;2022-07-31T06:11:16;4.50;;;2.28;;
42296;SDS011;28985;47.456;19.016;2022-07-31T06:13:43;1.88;;;1.77;;
42296;SDS011;28985;47.456;19.016;2022-07-31T06:16:10;3.17;;;2.70;;
42296;SDS011;28985;47.456;19.016;2022-07-31T06:18:38;2.50;;;2.30;;
42296;SDS011;28985;47.456;19.016;2022-07-31T06:21:05;2.42;;;2.33;;
42296;SDS011;28985;47.456;19.016;2022-07-31T06:23:32;2.75;;;2.55;;
42296;SDS011;28985;47.456;19.016;2022-07-31T06:25:59;2.70;;;2.50;;
42296;SDS011;28985;47.456;19.016;2022-07-31T06:28:26;3.28;;;2.90;;
42296;SDS011;28985;47.456;19.016;2022-07-31T06:31:16;3.08;;;2.45;;
42296;SDS011;28985;47.456;19.016;2022-07-31T06:36:15;5.28;;;2.67;;
42296;SDS011;28985;47.456;19.016;2022-07-31T06:38:42;3.50;;;2.17;;
42296;SDS011;28985;47.456;19.016;2022-07-31T06:41:09;2.83;;;2.42;;
42296;SDS011;28985;47.456;19.016;2022-07-31T06:43:35;3.72;;;2.75;;
42296;SDS011;28985;47.456;19.016;2022-07-31T06:46:02;3.42;;;2.40;;
42296;SDS011;28985;47.456;19.016;2022-07-31T06:48:30;3.55;;;2.75;;
42296;SDS011;28985;47.456;19.016;2022-07-31T06:50:57;3.20;;;2.60;;
42296;SDS011;28985;47.456;19.016;2022-07-31T06:53:43;3.08;;;2.65;;
42296;SDS011;28985;47.456;19.016;2022-07-31T06:56:10;4.50;;;2.40;;
42296;SDS011;28985;47.456;19.016;2022-07-31T06:58:36;3.20;;;2.20;;
42296;SDS011;28985;47.456;19.016;2022-07-31T07:01:03;3.08;;;2.45;;
42296;SDS011;28985;47.456;19.016;2022-07-31T07:03:30;3.05;;;2.60;;
42296;SDS011;28985;47.456;19.016;2022-07-31T07:05:56;2.47;;;2.28;;
42296;SDS011;28985;47.456;19.016;2022-07-31T07:08:23;2.97;;;2.63;;
42296;SDS011;28985;47.456;19.016;2022-07-31T07:10:50;2.67;;;2.15;;
42296;SDS011;28985;47.456;19.016;2022-07-31T07:13:17;3.63;;;2.20;;
42296;SDS011;28985;47.456;19.016;2022-07-31T07:15:43;2.20;;;2.10;;
42296;SDS011;28985;47.456;19.016;2022-07-31T07:18:10;3.65;;;2.53;;
42296;SDS011;28985;47.456;19.016;2022-07-31T07:20:37;2.30;;;2.10;;
42296;SDS011;28985;47.456;19.016;2022-07-31T07:23:03;2.22;;;1.80;;
42296;SDS011;28985;47.456;19.016;2022-07-31T07:25:30;2.38;;;1.80;;
42296;SDS011;28985;47.456;19.016;2022-07-31T07:27:57;2.63;;;2.42;;
42296;SDS011;28985;47.456;19.016;2022-07-31T07:30:24;2.33;;;2.22;;
42296;SDS011;28985;47.456;19.016;2022-07-31T07:32:53;2.13;;;1.95;;
42296;SDS011;28985;47.456;19.016;2022-07-31T07:35:20;2.15;;;2.00;;
42296;SDS011;28985;47.456;19.016;2022-07-31T07:37:47;2.90;;;2.38;;
42296;SDS011;28985;47.456;19.016;2022-07-31T07:40:14;1.85;;;1.75;;
42296;SDS011;28985;47.456;19.016;2022-07-31T07:42:42;1.90;;;1.60;;
42296;SDS011;28985;47.456;19.016;2022-07-31T07:45:09;1.88;;;1.77;;
42296;SDS011;28985;47.456;19.016;2022-07-31T07:47:36;2.78;;;2.03;;
42296;SDS011;28985;47.456;19.016;2022-07-31T07:50:23;4.35;;;2.20;;
42296;SDS011;28985;47.456;19.016;2022-07-31T07:52:54;3.13;;;1.80;;
42296;SDS011;28985;47.456;19.016;2022-07-31T07:55:21;1.67;;;1.58;;
42296;SDS011;28985;47.456;19.016;2022-07-31T07:57:47;2.03;;;1.92;;
42296;SDS011;28985;47.456;19.016;2022-07-31T08:00:14;4.25;;;2.08;;
42296;SDS011;28985;47.456;19.016;2022-07-31T08:02:41;1.88;;;1.77;;
42296;SDS011;28985;47.456;19.016;2022-07-31T08:05:28;1.85;;;1.75;;
42296;SDS011;28985;47.456;19.016;2022-07-31T08:07:54;3.92;;;1.88;;
42296;SDS011;28985;47.456;19.016;2022-07-31T08:10:21;2.33;;;1.80;;
42296;SDS011;28985;47.456;19.016;2022-07-31T08:12:47;2.83;;;1.83;;
42296;SDS011;28985;47.456;19.016;2022-07-31T08:15:15;2.45;;;2.25;;
42296;SDS011;28985;47.456;19.016;2022-07-31T08:17:42;3.38;;;1.73;;
42296;SDS011;28985;47.456;19.016;2022-07-31T08:20:08;1.25;;;1.20;;
42296;SDS011;28985;47.456;19.016;2022-07-31T08:22:35;1.40;;;1.30;;
42296;SDS011;28985;47.456;19.016;2022-07-31T08:25:02;1.50;;;1.40;;
42296;SDS011;28985;47.456;19.016;2022-07-31T08:27:31;1.50;;;1.40;;
42296;SDS011;28985;47.456;19.016;2022-07-31T08:30:06;1.63;;;1.52;;
42296;SDS011;28985;47.456;19.016;2022-07-31T08:32:33;1.40;;;1.00;;
42296;SDS011;28985;47.456;19.016;2022-07-31T08:35:00;0.90;;;0.90;;
42296;SDS011;28985;47.456;19.016;2022-07-31T08:37:26;1.45;;;1.35;;
42296;SDS011;28985;47.456;19.016;2022-07-31T08:40:14;1.90;;;0.95;;
42296;SDS011;28985;47.456;19.016;2022-07-31T08:42:43;0.93;;;0.90;;
42296;SDS011;28985;47.456;19.016;2022-07-31T08:45:11;1.05;;;0.90;;
42296;SDS011;28985;47.456;19.016;2022-07-31T08:47:39;0.68;;;0.68;;
42296;SDS011;28985;47.456;19.016;2022-07-31T08:50:07;1.77;;;0.73;;
42296;SDS011;28985;47.456;19.016;2022-07-31T08:52:38;0.63;;;0.63;;
42296;SDS011;28985;47.456;19.016;2022-07-31T08:55:08;1.10;;;1.10;;
42296;SDS011;28985;47.456;19.016;2022-07-31T08:57:34;1.15;;;1.15;;
42296;SDS011;28985;47.456;19.016;2022-07-31T09:00:06;1.10;;;1.10;;
42296;SDS011;28985;47.456;19.016;2022-07-31T09:02:36;1.60;;;1.48;;
42296;SDS011;28985;47.456;19.016;2022-07-31T09:05:04;1.08;;;1.08;;
42296;SDS011;28985;47.456;19.016;2022-07-31T09:07:31;2.78;;;1.60;;
42296;SDS011;28985;47.456;19.016;2022-07-31T09:09:58;1.80;;;1.70;;
42296;SDS011;28985;47.456;19.016;2022-07-31T09:12:31;1.65;;;1.65;;
42296;SDS011;28985;47.456;19.016;2022-07-31T09:15:00;2.03;;;1.92;;
42296;SDS011;28985;47.456;19.016;2022-07-31T09:17:30;1.58;;;1.48;;
42296;SDS011;28985;47.456;19.016;2022-07-31T09:20:02;2.75;;;1.88;;
42296;SDS011;28985;47.456;19.016;2022-07-31T09:22:30;2.08;;;1.90;;
42296;SDS011;28985;47.456;19.016;2022-07-31T09:25:07;2.05;;;1.95;;
42296;SDS011;28985;47.456;19.016;2022-07-31T09:27:37;1.38;;;1.38;;
42296;SDS011;28985;47.456;19.016;2022-07-31T09:30:04;4.47;;;3.72;;
42296;SDS011;28985;47.456;19.016;2022-07-31T09:32:32;2.85;;;2.67;;
42296;SDS011;28985;47.456;19.016;2022-07-31T09:35:09;1.70;;;1.70;;
42296;SDS011;28985;47.456;19.016;2022-07-31T09:37:37;2.25;;;1.60;;
42296;SDS011;28985;47.456;19.016;2022-07-31T09:40:05;1.73;;;1.63;;
42296;SDS011;28985;47.456;19.016;2022-07-31T09:42:34;1.30;;;1.30;;
42296;SDS011;28985;47.456;19.016;2022-07-31T09:45:18;1.65;;;1.55;;
42296;SDS011;28985;47.456;19.016;2022-07-31T09:48:01;2.35;;;1.50;;
42296;SDS011;28985;47.456;19.016;2022-07-31T09:50:38;1.88;;;1.27;;
42296;SDS011;28985;47.456;19.016;2022-07-31T09:53:17;1.48;;;1.48;;
42296;SDS011;28985;47.456;19.016;2022-07-31T09:55:48;1.50;;;1.48;;
42296;SDS011;28985;47.456;19.016;2022-07-31T09:58:19;2.58;;;2.00;;
42296;SDS011;28985;47.456;19.016;2022-07-31T10:00:47;1.83;;;1.73;;
42296;SDS011;28985;47.456;19.016;2022-07-31T10:03:17;1.77;;;1.77;;
42296;SDS011;28985;47.456;19.016;2022-07-31T10:05:45;2.15;;;1.88;;
42296;SDS011;28985;47.456;19.016;2022-07-31T10:08:12;2.40;;;2.20;;
42296;SDS011;28985;47.456;19.016;2022-07-31T10:10:43;1.80;;;1.70;;
42296;SDS011;28985;47.456;19.016;2022-07-31T10:13:12;2.08;;;1.98;;
42296;SDS011;28985;47.456;19.016;2022-07-31T10:15:44;1.70;;;1.65;;
42296;SDS011;28985;47.456;19.016;2022-07-31T10:18:17;2.72;;;2.40;;
42296;SDS011;28985;47.456;19.016;2022-07-31T10:21:01;2.17;;;1.50;;
42296;SDS011;28985;47.456;19.016;2022-07-31T10:23:32;2.72;;;2.50;;
42296;SDS011;28985;47.456;19.016;2022-07-31T10:26:04;2.22;;;2.13;;
42296;SDS011;28985;47.456;19.016;2022-07-31T10:28:30;2.33;;;2.13;;
42296;SDS011;28985;47.456;19.016;2022-07-31T10:30:57;2.58;;;2.38;;
42296;SDS011;28985;47.456;19.016;2022-07-31T10:33:24;2.00;;;1.90;;
42296;SDS011;28985;47.456;19.016;2022-07-31T10:44:56;2.47;;;2.38;;
42296;SDS011;28985;47.456;19.016;2022-07-31T10:47:28;2.10;;;2.00;;
42296;SDS011;28985;47.456;19.016;2022-07-31T10:49:54;2.65;;;2.45;;
42296;SDS011;28985;47.456;19.016;2022-07-31T10:52:31;2.80;;;2.60;;
42296;SDS011;28985;47.456;19.016;2022-07-31T10:55:00;2.70;;;2.60;;
42296;SDS011;28985;47.456;19.016;2022-07-31T10:57:28;2.92;;;2.72;;
42296;SDS011;28985;47.456;19.016;2022-07-31T11:02:37;3.03;;;2.85;;
42296;SDS011;28985;47.456;19.016;2022-07-31T11:05:14;5.13;;;2.53;;
42296;SDS011;28985;47.456;19.016;2022-07-31T11:07:46;2.50;;;2.30;;
42296;SDS011;28985;47.456;19.016;2022-07-31T11:10:24;2.00;;;1.90;;
42296;SDS011;28985;47.456;19.016;2022-07-31T11:13:00;2.55;;;2.42;;
42296;SDS011;28985;47.456;19.016;2022-07-31T11:15:27;2.38;;;2.28;;
42296;SDS011;28985;47.456;19.016;2022-07-31T11:17:54;2.80;;;2.60;;
42296;SDS011;28985;47.456;19.016;2022-07-31T11:20:41;3.50;;;3.28;;
42296;SDS011;28985;47.456;19.016;2022-07-31T11:23:12;3.28;;;2.40;;
42296;SDS011;28985;47.456;19.016;2022-07-31T11:25:44;3.05;;;2.85;;
42296;SDS011;28985;47.456;19.016;2022-07-31T11:28:12;3.30;;;1.77;;
42296;SDS011;28985;47.456;19.016;2022-07-31T11:30:53;2.58;;;2.47;;
42296;SDS011;28985;47.456;19.016;2022-07-31T11:36:15;3.03;;;2.92;;
42296;SDS011;28985;47.456;19.016;2022-07-31T11:38:47;3.65;;;3.55;;
42296;SDS011;28985;47.456;19.016;2022-07-31T11:41:15;3.50;;;3.30;;
42296;SDS011;28985;47.456;19.016;2022-07-31T11:43:48;3.97;;;3.78;;
42296;SDS011;28985;47.456;19.016;2022-07-31T11:46:22;4.32;;;4.05;;
42296;SDS011;28985;47.456;19.016;2022-07-31T11:48:55;5.00;;;4.70;;
42296;SDS011;28985;47.456;19.016;2022-07-31T11:51:23;5.00;;;4.70;;
42296;SDS011;28985;47.456;19.016;2022-07-31T11:53:51;4.97;;;4.78;;
42296;SDS011;28985;47.456;19.016;2022-07-31T11:56:23;4.97;;;4.60;;
42296;SDS011;28985;47.456;19.016;2022-07-31T11:58:51;9.80;;;9.40;;
42296;SDS011;28985;47.456;19.016;2022-07-31T12:01:23;5.68;;;5.47;;
42296;SDS011;28985;47.456;19.016;2022-07-31T12:03:55;6.68;;;6.28;;
42296;SDS011;28985;47.456;19.016;2022-07-31T12:06:34;6.30;;;6.00;;
42296;SDS011;28985;47.456;19.016;2022-07-31T12:09:02;5.05;;;4.75;;
42296;SDS011;28985;47.456;19.016;2022-07-31T12:11:28;5.38;;;5.18;;
42296;SDS011;28985;47.456;19.016;2022-07-31T12:13:55;5.15;;;4.78;;
42296;SDS011;28985;47.456;19.016;2022-07-31T12:16:23;5.22;;;4.72;;
42296;SDS011;28985;47.456;19.016;2022-07-31T12:18:54;4.55;;;4.32;;
42296;SDS011;28985;47.456;19.016;2022-07-31T12:21:31;4.57;;;4.38;;
42296;SDS011;28985;47.456;19.016;2022-07-31T12:24:09;6.47;;;5.90;;
42296;SDS011;28985;47.456;19.016;2022-07-31T12:26:42;6.28;;;4.28;;
42296;SDS011;28985;47.456;19.016;2022-07-31T12:29:14;4.50;;;4.30;;
42296;SDS011;28985;47.456;19.016;2022-07-31T12:31:47;4.70;;;4.60;;
42296;SDS011;28985;47.456;19.016;2022-07-31T12:34:25;4.82;;;4.68;;
42296;SDS011;28985;47.456;19.016;2022-07-31T12:37:07;4.72;;;4.50;;
42296;SDS011;28985;47.456;19.016;2022-07-31T12:39:51;6.18;;;5.68;;
42296;SDS011;28985;47.456;19.016;2022-07-31T12:42:30;4.65;;;4.35;;
42296;SDS011;28985;47.456;19.016;2022-07-31T12:45:06;5.15;;;4.95;;
42296;SDS011;28985;47.456;19.016;2022-07-31T12:47:45;5.10;;;4.90;;
42296;SDS011;28985;47.456;19.016;2022-07-31T12:50:21;5.30;;;5.10;;
42296;SDS011;28985;47.456;19.016;2022-07-31T12:52:48;5.47;;;5.00;;
42296;SDS011;28985;47.456;19.016;2022-07-31T12:55:15;5.47;;;4.30;;
42296;SDS011;28985;47.456;19.016;2022-07-31T12:57:43;4.53;;;4.32;;
42296;SDS011;28985;47.456;19.016;2022-07-31T13:00:18;4.10;;;4.00;;
42296;SDS011;28985;47.456;19.016;2022-07-31T13:02:49;4.57;;;4.38;;
42296;SDS011;28985;47.456;19.016;2022-07-31T13:05:17;4.30;;;4.00;;
42296;SDS011;28985;47.456;19.016;2022-07-31T13:07:44;3.88;;;3.78;;
42296;SDS011;28985;47.456;19.016;2022-07-31T13:10:10;3.95;;;3.85;;
42296;SDS011;28985;47.456;19.016;2022-07-31T13:12:47;3.95;;;3.65;;
42296;SDS011;28985;47.456;19.016;2022-07-31T13:15:17;3.83;;;3.63;;
42296;SDS011;28985;47.456;19.016;2022-07-31T13:17:47;3.75;;;3.55;;
42296;SDS011;28985;47.456;19.016;2022-07-31T13:20:16;3.92;;;3.83;;
42296;SDS011;28985;47.456;19.016;2022-07-31T13:22:42;3.10;;;3.00;;
42296;SDS011;28985;47.456;19.016;2022-07-31T13:25:09;5.22;;;4.88;;
42296;SDS011;28985;47.456;19.016;2022-07-31T13:27:36;4.15;;;3.95;;
42296;SDS011;28985;47.456;19.016;2022-07-31T13:30:02;3.80;;;3.63;;
42296;SDS011;28985;47.456;19.016;2022-07-31T13:32:30;3.40;;;3.20;;
42296;SDS011;28985;47.456;19.016;2022-07-31T13:34:57;3.53;;;3.33;;
42296;SDS011;28985;47.456;19.016;2022-07-31T13:37:45;3.13;;;3.03;;
42296;SDS011;28985;47.456;19.016;2022-07-31T13:40:12;2.70;;;2.60;;
42296;SDS011;28985;47.456;19.016;2022-07-31T13:42:39;2.95;;;2.85;;
42296;SDS011;28985;47.456;19.016;2022-07-31T13:45:05;4.05;;;3.75;;
42296;SDS011;28985;47.456;19.016;2022-07-31T13:47:33;2.00;;;1.90;;
42296;SDS011;28985;47.456;19.016;2022-07-31T13:50:17;3.17;;;3.08;;
42296;SDS011;28985;47.456;19.016;2022-07-31T13:52:44;2.83;;;2.45;;
42296;SDS011;28985;47.456;19.016;2022-07-31T13:55:10;2.20;;;2.10;;
42296;SDS011;28985;47.456;19.016;2022-07-31T13:57:37;2.60;;;2.53;;
42296;SDS011;28985;47.456;19.016;2022-07-31T14:00:04;2.72;;;2.53;;
42296;SDS011;28985;47.456;19.016;2022-07-31T14:02:31;4.00;;;2.55;;
42296;SDS011;28985;47.456;19.016;2022-07-31T14:04:58;3.17;;;2.97;;
42296;SDS011;28985;47.456;19.016;2022-07-31T14:07:25;3.25;;;2.83;;
42296;SDS011;28985;47.456;19.016;2022-07-31T14:10:11;2.85;;;2.65;;
42296;SDS011;28985;47.456;19.016;2022-07-31T14:12:45;3.50;;;3.28;;
42296;SDS011;28985;47.456;19.016;2022-07-31T14:15:11;3.67;;;3.58;;
42296;SDS011;28985;47.456;19.016;2022-07-31T14:17:38;3.65;;;3.55;;
42296;SDS011;28985;47.456;19.016;2022-07-31T14:20:05;8.50;;;3.50;;
42296;SDS011;28985;47.456;19.016;2022-07-31T14:22:32;3.40;;;3.30;;
42296;SDS011;28985;47.456;19.016;2022-07-31T14:24:59;3.63;;;3.30;;
42296;SDS011;28985;47.456;19.016;2022-07-31T14:27:25;4.25;;;4.05;;
42296;SDS011;28985;47.456;19.016;2022-07-31T14:29:52;3.63;;;3.33;;
42296;SDS011;28985;47.456;19.016;2022-07-31T14:32:18;3.78;;;3.58;;
42296;SDS011;28985;47.456;19.016;2022-07-31T14:34:50;4.13;;;3.97;;
42296;SDS011;28985;47.456;19.016;2022-07-31T14:37:16;4.18;;;3.97;;
42296;SDS011;28985;47.456;19.016;2022-07-31T14:39:43;4.97;;;4.88;;
42296;SDS011;28985;47.456;19.016;2022-07-31T14:42:10;4.75;;;4.45;;
42296;SDS011;28985;47.456;19.016;2022-07-31T14:44:37;6.05;;;5.75;;
42296;SDS011;28985;47.456;19.016;2022-07-31T14:47:07;6.82;;;6.57;;
42296;SDS011;28985;47.456;19.016;2022-07-31T14:49:34;6.65;;;6.45;;
42296;SDS011;28985;47.456;19.016;2022-07-31T14:52:22;5.90;;;5.68;;
42296;SDS011;28985;47.456;19.016;2022-07-31T14:54:49;6.43;;;6.00;;
42296;SDS011;28985;47.456;19.016;2022-07-31T14:57:15;5.88;;;5.68;;
42296;SDS011;28985;47.456;19.016;2022-07-31T14:59:47;6.80;;;6.50;;
42296;SDS011;28985;47.456;19.016;2022-07-31T15:02:15;5.10;;;4.95;;
42296;SDS011;28985;47.456;19.016;2022-07-31T15:04:47;4.53;;;4.22;;
42296;SDS011;28985;47.456;19.016;2022-07-31T15:07:14;4.50;;;4.30;;
42296;SDS011;28985;47.456;19.016;2022-07-31T15:10:01;4.57;;;4.18;;
42296;SDS011;28985;47.456;19.016;2022-07-31T15:12:31;4.18;;;3.40;;
42296;SDS011;28985;47.456;19.016;2022-07-31T15:14:57;4.03;;;3.92;;